sensor_id;sensor_type;location;lat;lon;timestamp;P1;durP1;ratioP1;P2;durP2;ratioP2
29412;SDS011;16389;50.126;8.450;2023-04-24T00:00:07;1.77;;;1.10;;
29412;SDS011;16389;50.126;8.450;2023-04-24T00:02:34;4.18;;;0.90;;
29412;SDS011;16389;50.126;8.450;2023-04-24T00:05:03;2.45;;;1.20;;
29412;SDS011;16389;50.126;8.450;2023-04-24T00:07:30;1.00;;;0.90;;
29412;SDS011;16389;50.126;8.450;2023-04-24T00:09:56;2.75;;;1.20;;
29412;SDS011;16389;50.126;8.450;2023-04-24T00:12:22;1.02;;;0.80;;
29412;SDS011;16389;50.126;8.450;2023-04-24T00:14:48;1.20;;;1.00;;
29412;SDS011;16389;50.126;8.450;2023-04-24T00:17:14;1.75;;;0.90;;
29412;SDS011;16389;50.126;8.450;2023-04-24T00:19:40;1.10;;;0.98;;
29412;SDS011;16389;50.126;8.450;2023-04-24T00:22:06;1.23;;;1.00;;
29412;SDS011;16389;50.126;8.450;2023-04-24T00:24:31;1.00;;;0.90;;
29412;SDS011;16389;50.126;8.450;2023-04-24T00:26:57;2.20;;;1.00;;
29412;SDS011;16389;50.126;8.450;2023-04-24T00:29:24;2.05;;;1.02;;
29412;SDS011;16389;50.126;8.450;2023-04-24T00:31:49;0.77;;;0.70;;
29412;SDS011;16389;50.126;8.450;2023-04-24T00:34:15;0.98;;;0.90;;
29412;SDS011;16389;50.126;8.450;2023-04-24T00:36:41;1.42;;;1.00;;
29412;SDS011;16389;50.126;8.450;2023-04-24T00:39:07;2.17;;;1.05;;
29412;SDS011;16389;50.126;8.450;2023-04-24T00:41:35;1.42;;;0.93;;
29412;SDS011;16389;50.126;8.450;2023-04-24T00:44:01;0.93;;;0.82;;
29412;SDS011;16389;50.126;8.450;2023-04-24T00:46:26;5.70;;;1.13;;
29412;SDS011;16389;50.126;8.450;2023-04-24T00:48:52;1.45;;;0.98;;
29412;SDS011;16389;50.126;8.450;2023-04-24T00:51:18;2.00;;;0.90;;
29412;SDS011;16389;50.126;8.450;2023-04-24T00:53:44;5.15;;;0.90;;
29412;SDS011;16389;50.126;8.450;2023-04-24T00:56:10;0.93;;;0.80;;
29412;SDS011;16389;50.126;8.450;2023-04-24T00:58:36;0.90;;;0.80;;
29412;SDS011;16389;50.126;8.450;2023-04-24T01:01:02;1.35;;;1.25;;
29412;SDS011;16389;50.126;8.450;2023-04-24T01:03:31;1.48;;;0.60;;
29412;SDS011;16389;50.126;8.450;2023-04-24T01:05:58;2.28;;;0.90;;
29412;SDS011;16389;50.126;8.450;2023-04-24T01:08:24;1.05;;;0.73;;
29412;SDS011;16389;50.126;8.450;2023-04-24T01:10:51;1.27;;;1.02;;
29412;SDS011;16389;50.126;8.450;2023-04-24T01:13:17;2.10;;;0.80;;
29412;SDS011;16389;50.126;8.450;2023-04-24T01:15:44;1.67;;;0.90;;
29412;SDS011;16389;50.126;8.450;2023-04-24T01:18:10;2.63;;;1.02;;
29412;SDS011;16389;50.126;8.450;2023-04-24T01:20:36;1.15;;;0.80;;
29412;SDS011;16389;50.126;8.450;2023-04-24T01:23:05;1.88;;;0.70;;
29412;SDS011;16389;50.126;8.450;2023-04-24T01:25:31;0.90;;;0.77;;
29412;SDS011;16389;50.126;8.450;2023-04-24T01:27:57;0.80;;;0.80;;
29412;SDS011;16389;50.126;8.450;2023-04-24T01:30:23;1.23;;;0.70;;
29412;SDS011;16389;50.126;8.450;2023-04-24T01:32:48;1.88;;;0.80;;
29412;SDS011;16389;50.126;8.450;2023-04-24T01:35:14;1.08;;;0.80;;
29412;SDS011;16389;50.126;8.450;2023-04-24T01:37:40;2.40;;;0.80;;
29412;SDS011;16389;50.126;8.450;2023-04-24T01:40:06;2.20;;;1.10;;
29412;SDS011;16389;50.126;8.450;2023-04-24T01:42:32;0.95;;;0.77;;
29412;SDS011;16389;50.126;8.450;2023-04-24T01:44:58;2.00;;;0.85;;
29412;SDS011;16389;50.126;8.450;2023-04-24T01:47:25;0.88;;;0.80;;
29412;SDS011;16389;50.126;8.450;2023-04-24T01:49:51;0.65;;;0.65;;
29412;SDS011;16389;50.126;8.450;2023-04-24T01:52:17;1.65;;;0.90;;
29412;SDS011;16389;50.126;8.450;2023-04-24T01:54:43;1.58;;;0.90;;
29412;SDS011;16389;50.126;8.450;2023-04-24T01:57:09;1.40;;;0.70;;
29412;SDS011;16389;50.126;8.450;2023-04-24T01:59:35;1.17;;;0.80;;
29412;SDS011;16389;50.126;8.450;2023-04-24T02:02:02;1.50;;;0.90;;
29412;SDS011;16389;50.126;8.450;2023-04-24T02:04:28;0.70;;;0.70;;
29412;SDS011;16389;50.126;8.450;2023-04-24T02:06:53;0.98;;;0.77;;
29412;SDS011;16389;50.126;8.450;2023-04-24T02:09:19;1.00;;;0.80;;
29412;SDS011;16389;50.126;8.450;2023-04-24T02:11:45;2.47;;;0.95;;
29412;SDS011;16389;50.126;8.450;2023-04-24T02:14:11;1.95;;;0.70;;
29412;SDS011;16389;50.126;8.450;2023-04-24T02:16:36;1.05;;;0.70;;
29412;SDS011;16389;50.126;8.450;2023-04-24T02:19:03;1.77;;;0.68;;
29412;SDS011;16389;50.126;8.450;2023-04-24T02:21:29;1.55;;;0.93;;
29412;SDS011;16389;50.126;8.450;2023-04-24T02:23:56;3.67;;;1.10;;
29412;SDS011;16389;50.126;8.450;2023-04-24T02:26:22;1.65;;;1.00;;
29412;SDS011;16389;50.126;8.450;2023-04-24T02:28:47;2.95;;;1.10;;
29412;SDS011;16389;50.126;8.450;2023-04-24T02:31:13;1.08;;;0.98;;
29412;SDS011;16389;50.126;8.450;2023-04-24T02:33:39;4.43;;;1.02;;
29412;SDS011;16389;50.126;8.450;2023-04-24T02:36:05;1.25;;;1.02;;
29412;SDS011;16389;50.126;8.450;2023-04-24T02:38:31;1.90;;;1.10;;
29412;SDS011;16389;50.126;8.450;2023-04-24T02:40:56;1.60;;;1.00;;
29412;SDS011;16389;50.126;8.450;2023-04-24T02:43:22;1.25;;;1.10;;
29412;SDS011;16389;50.126;8.450;2023-04-24T02:45:48;1.10;;;1.00;;
29412;SDS011;16389;50.126;8.450;2023-04-24T02:48:14;3.53;;;1.00;;
29412;SDS011;16389;50.126;8.450;2023-04-24T02:50:39;2.83;;;0.80;;
29412;SDS011;16389;50.126;8.450;2023-04-24T02:53:05;1.45;;;1.00;;
29412;SDS011;16389;50.126;8.450;2023-04-24T02:55:31;1.70;;;0.90;;
29412;SDS011;16389;50.126;8.450;2023-04-24T02:57:56;2.03;;;0.80;;
29412;SDS011;16389;50.126;8.450;2023-04-24T03:00:22;0.75;;;0.73;;
29412;SDS011;16389;50.126;8.450;2023-04-24T03:02:48;1.38;;;1.00;;
29412;SDS011;16389;50.126;8.450;2023-04-24T03:05:14;1.23;;;0.80;;
29412;SDS011;16389;50.126;8.450;2023-04-24T03:07:41;2.33;;;0.95;;
29412;SDS011;16389;50.126;8.450;2023-04-24T03:10:07;1.80;;;0.90;;
29412;SDS011;16389;50.126;8.450;2023-04-24T03:12:33;1.90;;;0.90;;
29412;SDS011;16389;50.126;8.450;2023-04-24T03:14:58;1.38;;;0.80;;
29412;SDS011;16389;50.126;8.450;2023-04-24T03:17:24;0.98;;;0.90;;
29412;SDS011;16389;50.126;8.450;2023-04-24T03:19:50;1.15;;;0.95;;
29412;SDS011;16389;50.126;8.450;2023-04-24T03:22:15;1.48;;;1.00;;
29412;SDS011;16389;50.126;8.450;2023-04-24T03:24:41;0.70;;;0.70;;
29412;SDS011;16389;50.126;8.450;2023-04-24T03:27:06;0.80;;;0.80;;
29412;SDS011;16389;50.126;8.450;2023-04-24T03:29:32;0.82;;;0.82;;
29412;SDS011;16389;50.126;8.450;2023-04-24T03:31:58;0.80;;;0.80;;
29412;SDS011;16389;50.126;8.450;2023-04-24T03:34:23;0.90;;;0.90;;
29412;SDS011;16389;50.126;8.450;2023-04-24T03:36:49;1.00;;;0.90;;
29412;SDS011;16389;50.126;8.450;2023-04-24T03:39:14;0.98;;;0.88;;
29412;SDS011;16389;50.126;8.450;2023-04-24T03:41:40;2.70;;;1.10;;
29412;SDS011;16389;50.126;8.450;2023-04-24T03:44:06;2.30;;;1.20;;
29412;SDS011;16389;50.126;8.450;2023-04-24T03:46:32;1.50;;;0.80;;
29412;SDS011;16389;50.126;8.450;2023-04-24T03:48:57;4.55;;;1.27;;
29412;SDS011;16389;50.126;8.450;2023-04-24T03:51:23;1.95;;;1.10;;
29412;SDS011;16389;50.126;8.450;2023-04-24T03:53:49;2.97;;;0.90;;
29412;SDS011;16389;50.126;8.450;2023-04-24T03:56:14;1.00;;;0.90;;
29412;SDS011;16389;50.126;8.450;2023-04-24T03:58:40;0.80;;;0.80;;
29412;SDS011;16389;50.126;8.450;2023-04-24T04:01:06;0.82;;;0.82;;
29412;SDS011;16389;50.126;8.450;2023-04-24T04:03:32;1.33;;;1.10;;
29412;SDS011;16389;50.126;8.450;2023-04-24T04:05:58;1.13;;;0.90;;
29412;SDS011;16389;50.126;8.450;2023-04-24T04:08:24;4.85;;;0.85;;
29412;SDS011;16389;50.126;8.450;2023-04-24T04:10:50;1.65;;;0.82;;
29412;SDS011;16389;50.126;8.450;2023-04-24T04:13:15;0.90;;;0.90;;
29412;SDS011;16389;50.126;8.450;2023-04-24T04:15:41;1.48;;;1.38;;
29412;SDS011;16389;50.126;8.450;2023-04-24T04:18:06;1.90;;;1.00;;
29412;SDS011;16389;50.126;8.450;2023-04-24T04:20:32;1.10;;;1.00;;
29412;SDS011;16389;50.126;8.450;2023-04-24T04:22:58;0.98;;;0.90;;
29412;SDS011;16389;50.126;8.450;2023-04-24T04:25:23;1.10;;;1.00;;
29412;SDS011;16389;50.126;8.450;2023-04-24T04:27:49;1.25;;;1.13;;
29412;SDS011;16389;50.126;8.450;2023-04-24T04:30:16;2.10;;;0.80;;
29412;SDS011;16389;50.126;8.450;2023-04-24T04:32:43;1.48;;;1.10;;
29412;SDS011;16389;50.126;8.450;2023-04-24T04:35:08;2.35;;;1.00;;
29412;SDS011;16389;50.126;8.450;2023-04-24T04:37:35;1.20;;;1.10;;
29412;SDS011;16389;50.126;8.450;2023-04-24T04:40:01;1.23;;;1.00;;
29412;SDS011;16389;50.126;8.450;2023-04-24T04:42:31;1.90;;;1.17;;
29412;SDS011;16389;50.126;8.450;2023-04-24T04:44:58;1.45;;;1.10;;
29412;SDS011;16389;50.126;8.450;2023-04-24T04:47:28;1.02;;;1.00;;
29412;SDS011;16389;50.126;8.450;2023-04-24T04:49:56;2.65;;;1.10;;
29412;SDS011;16389;50.126;8.450;2023-04-24T04:52:22;1.95;;;1.10;;
29412;SDS011;16389;50.126;8.450;2023-04-24T04:54:50;1.58;;;1.25;;
29412;SDS011;16389;50.126;8.450;2023-04-24T04:57:15;2.10;;;1.20;;
29412;SDS011;16389;50.126;8.450;2023-04-24T04:59:41;1.15;;;0.88;;
29412;SDS011;16389;50.126;8.450;2023-04-24T05:02:07;2.05;;;1.00;;
29412;SDS011;16389;50.126;8.450;2023-04-24T05:04:32;1.25;;;1.05;;
29412;SDS011;16389;50.126;8.450;2023-04-24T05:06:58;2.55;;;1.10;;
29412;SDS011;16389;50.126;8.450;2023-04-24T05:09:24;1.35;;;1.10;;
29412;SDS011;16389;50.126;8.450;2023-04-24T05:11:52;1.30;;;1.20;;
29412;SDS011;16389;50.126;8.450;2023-04-24T05:14:18;1.10;;;1.00;;
29412;SDS011;16389;50.126;8.450;2023-04-24T05:16:44;1.30;;;1.20;;
29412;SDS011;16389;50.126;8.450;2023-04-24T05:19:10;3.10;;;1.30;;
29412;SDS011;16389;50.126;8.450;2023-04-24T05:21:36;1.33;;;1.20;;
29412;SDS011;16389;50.126;8.450;2023-04-24T05:24:04;1.42;;;1.10;;
29412;SDS011;16389;50.126;8.450;2023-04-24T05:26:30;2.17;;;1.40;;
29412;SDS011;16389;50.126;8.450;2023-04-24T05:28:56;1.20;;;1.00;;
29412;SDS011;16389;50.126;8.450;2023-04-24T05:31:21;2.55;;;1.50;;
29412;SDS011;16389;50.126;8.450;2023-04-24T05:33:47;2.80;;;1.38;;
29412;SDS011;16389;50.126;8.450;2023-04-24T05:36:12;1.98;;;1.40;;
29412;SDS011;16389;50.126;8.450;2023-04-24T05:38:38;2.15;;;1.85;;
29412;SDS011;16389;50.126;8.450;2023-04-24T05:41:04;2.25;;;1.60;;
29412;SDS011;16389;50.126;8.450;2023-04-24T05:43:30;1.67;;;1.58;;
29412;SDS011;16389;50.126;8.450;2023-04-24T05:45:55;1.52;;;1.42;;
29412;SDS011;16389;50.126;8.450;2023-04-24T05:48:21;2.00;;;1.70;;
29412;SDS011;16389;50.126;8.450;2023-04-24T05:50:47;1.92;;;1.60;;
29412;SDS011;16389;50.126;8.450;2023-04-24T05:53:13;2.42;;;1.77;;
29412;SDS011;16389;50.126;8.450;2023-04-24T05:55:39;2.30;;;1.63;;
29412;SDS011;16389;50.126;8.450;2023-04-24T05:58:05;2.05;;;1.85;;
29412;SDS011;16389;50.126;8.450;2023-04-24T06:00:31;2.80;;;2.22;;
29412;SDS011;16389;50.126;8.450;2023-04-24T06:02:57;2.35;;;1.92;;
29412;SDS011;16389;50.126;8.450;2023-04-24T06:05:23;2.10;;;1.70;;
29412;SDS011;16389;50.126;8.450;2023-04-24T06:07:49;2.08;;;1.90;;
29412;SDS011;16389;50.126;8.450;2023-04-24T06:10:15;2.80;;;2.25;;
29412;SDS011;16389;50.126;8.450;2023-04-24T06:12:41;3.00;;;2.50;;
29412;SDS011;16389;50.126;8.450;2023-04-24T06:15:07;3.47;;;1.92;;
29412;SDS011;16389;50.126;8.450;2023-04-24T06:17:33;3.08;;;2.50;;
29412;SDS011;16389;50.126;8.450;2023-04-24T06:19:59;3.58;;;2.40;;
29412;SDS011;16389;50.126;8.450;2023-04-24T06:22:25;3.55;;;2.08;;
29412;SDS011;16389;50.126;8.450;2023-04-24T06:24:50;2.63;;;2.00;;
29412;SDS011;16389;50.126;8.450;2023-04-24T06:27:16;2.63;;;2.33;;
29412;SDS011;16389;50.126;8.450;2023-04-24T06:29:41;2.75;;;2.55;;
29412;SDS011;16389;50.126;8.450;2023-04-24T06:32:07;2.25;;;2.05;;
29412;SDS011;16389;50.126;8.450;2023-04-24T06:34:33;2.85;;;2.60;;
29412;SDS011;16389;50.126;8.450;2023-04-24T06:36:59;2.60;;;2.30;;
29412;SDS011;16389;50.126;8.450;2023-04-24T06:39:25;2.90;;;2.60;;
29412;SDS011;16389;50.126;8.450;2023-04-24T06:41:51;2.97;;;2.67;;
29412;SDS011;16389;50.126;8.450;2023-04-24T06:44:16;2.70;;;2.28;;
29412;SDS011;16389;50.126;8.450;2023-04-24T06:46:42;2.70;;;2.42;;
29412;SDS011;16389;50.126;8.450;2023-04-24T06:49:09;2.40;;;2.17;;
29412;SDS011;16389;50.126;8.450;2023-04-24T06:51:35;2.50;;;2.30;;
29412;SDS011;16389;50.126;8.450;2023-04-24T06:54:01;2.28;;;2.08;;
29412;SDS011;16389;50.126;8.450;2023-04-24T06:56:26;2.80;;;2.10;;
29412;SDS011;16389;50.126;8.450;2023-04-24T06:58:54;4.00;;;1.98;;
29412;SDS011;16389;50.126;8.450;2023-04-24T07:01:20;2.10;;;1.90;;
29412;SDS011;16389;50.126;8.450;2023-04-24T07:03:45;9.75;;;2.40;;
29412;SDS011;16389;50.126;8.450;2023-04-24T07:06:11;2.20;;;2.00;;
29412;SDS011;16389;50.126;8.450;2023-04-24T07:08:37;1.83;;;1.70;;
29412;SDS011;16389;50.126;8.450;2023-04-24T07:11:03;2.13;;;1.92;;
29412;SDS011;16389;50.126;8.450;2023-04-24T07:13:29;1.80;;;1.70;;
29412;SDS011;16389;50.126;8.450;2023-04-24T07:15:55;2.00;;;1.80;;
29412;SDS011;16389;50.126;8.450;2023-04-24T07:18:21;1.83;;;1.50;;
29412;SDS011;16389;50.126;8.450;2023-04-24T07:20:47;1.83;;;1.60;;
29412;SDS011;16389;50.126;8.450;2023-04-24T07:23:15;2.40;;;1.80;;
29412;SDS011;16389;50.126;8.450;2023-04-24T07:25:41;1.98;;;1.80;;
29412;SDS011;16389;50.126;8.450;2023-04-24T07:28:07;1.77;;;1.48;;
29412;SDS011;16389;50.126;8.450;2023-04-24T07:30:32;2.30;;;1.55;;
29412;SDS011;16389;50.126;8.450;2023-04-24T07:32:58;1.67;;;1.55;;
29412;SDS011;16389;50.126;8.450;2023-04-24T07:35:25;1.98;;;1.70;;
29412;SDS011;16389;50.126;8.450;2023-04-24T07:37:54;2.33;;;1.90;;
29412;SDS011;16389;50.126;8.450;2023-04-24T07:40:20;2.65;;;1.67;;
29412;SDS011;16389;50.126;8.450;2023-04-24T07:42:47;2.65;;;1.90;;
29412;SDS011;16389;50.126;8.450;2023-04-24T07:45:15;2.10;;;1.83;;
29412;SDS011;16389;50.126;8.450;2023-04-24T07:47:42;2.17;;;1.92;;
29412;SDS011;16389;50.126;8.450;2023-04-24T07:50:09;3.17;;;1.80;;
29412;SDS011;16389;50.126;8.450;2023-04-24T07:52:35;1.88;;;1.75;;
29412;SDS011;16389;50.126;8.450;2023-04-24T07:55:01;1.70;;;1.60;;
29412;SDS011;16389;50.126;8.450;2023-04-24T07:57:27;3.13;;;1.38;;
29412;SDS011;16389;50.126;8.450;2023-04-24T07:59:53;2.30;;;1.60;;
29412;SDS011;16389;50.126;8.450;2023-04-24T08:02:19;2.20;;;1.67;;
29412;SDS011;16389;50.126;8.450;2023-04-24T08:04:46;1.50;;;1.40;;
29412;SDS011;16389;50.126;8.450;2023-04-24T08:07:12;2.22;;;1.48;;
29412;SDS011;16389;50.126;8.450;2023-04-24T08:09:38;3.25;;;1.80;;
29412;SDS011;16389;50.126;8.450;2023-04-24T08:12:03;1.95;;;1.75;;
29412;SDS011;16389;50.126;8.450;2023-04-24T08:14:29;1.92;;;1.70;;
29412;SDS011;16389;50.126;8.450;2023-04-24T08:16:55;2.67;;;1.60;;
29412;SDS011;16389;50.126;8.450;2023-04-24T08:19:21;1.98;;;1.75;;
29412;SDS011;16389;50.126;8.450;2023-04-24T08:21:48;1.63;;;1.52;;
29412;SDS011;16389;50.126;8.450;2023-04-24T08:24:14;6.47;;;1.60;;
29412;SDS011;16389;50.126;8.450;2023-04-24T08:26:39;1.70;;;1.60;;
29412;SDS011;16389;50.126;8.450;2023-04-24T08:29:05;2.53;;;1.50;;
29412;SDS011;16389;50.126;8.450;2023-04-24T08:31:32;2.15;;;1.55;;
29412;SDS011;16389;50.126;8.450;2023-04-24T08:34:00;3.92;;;1.58;;
29412;SDS011;16389;50.126;8.450;2023-04-24T08:36:25;2.22;;;1.67;;
29412;SDS011;16389;50.126;8.450;2023-04-24T08:38:52;2.53;;;1.60;;
29412;SDS011;16389;50.126;8.450;2023-04-24T08:41:18;5.63;;;1.55;;
29412;SDS011;16389;50.126;8.450;2023-04-24T08:43:45;1.55;;;1.40;;
29412;SDS011;16389;50.126;8.450;2023-04-24T08:46:12;1.75;;;1.60;;
29412;SDS011;16389;50.126;8.450;2023-04-24T08:48:40;1.48;;;1.27;;
29412;SDS011;16389;50.126;8.450;2023-04-24T08:51:08;1.98;;;1.55;;
29412;SDS011;16389;50.126;8.450;2023-04-24T08:53:35;1.48;;;1.38;;
29412;SDS011;16389;50.126;8.450;2023-04-24T08:56:01;1.95;;;1.30;;
29412;SDS011;16389;50.126;8.450;2023-04-24T08:58:28;1.70;;;1.40;;
29412;SDS011;16389;50.126;8.450;2023-04-24T09:00:54;1.50;;;1.40;;
29412;SDS011;16389;50.126;8.450;2023-04-24T09:03:20;1.55;;;1.30;;
29412;SDS011;16389;50.126;8.450;2023-04-24T09:05:47;2.00;;;1.33;;
29412;SDS011;16389;50.126;8.450;2023-04-24T09:08:15;2.17;;;1.55;;
29412;SDS011;16389;50.126;8.450;2023-04-24T09:10:42;2.13;;;1.58;;
29412;SDS011;16389;50.126;8.450;2023-04-24T09:13:09;1.65;;;1.55;;
29412;SDS011;16389;50.126;8.450;2023-04-24T09:15:35;3.28;;;1.60;;
29412;SDS011;16389;50.126;8.450;2023-04-24T09:18:02;1.83;;;1.40;;
29412;SDS011;16389;50.126;8.450;2023-04-24T09:20:28;1.55;;;1.45;;
29412;SDS011;16389;50.126;8.450;2023-04-24T09:22:54;3.05;;;1.50;;
29412;SDS011;16389;50.126;8.450;2023-04-24T09:25:21;3.25;;;1.42;;
29412;SDS011;16389;50.126;8.450;2023-04-24T09:27:47;1.42;;;1.17;;
29412;SDS011;16389;50.126;8.450;2023-04-24T09:30:13;1.65;;;1.30;;
29412;SDS011;16389;50.126;8.450;2023-04-24T09:32:45;2.67;;;1.30;;
29412;SDS011;16389;50.126;8.450;2023-04-24T09:35:12;1.48;;;1.15;;
29412;SDS011;16389;50.126;8.450;2023-04-24T09:37:43;1.30;;;1.20;;
29412;SDS011;16389;50.126;8.450;2023-04-24T09:40:14;1.52;;;1.42;;
29412;SDS011;16389;50.126;8.450;2023-04-24T09:42:59;1.23;;;1.13;;
29412;SDS011;16389;50.126;8.450;2023-04-24T09:45:28;2.25;;;1.30;;
29412;SDS011;16389;50.126;8.450;2023-04-24T09:48:01;1.60;;;1.50;;
29412;SDS011;16389;50.126;8.450;2023-04-24T09:50:27;1.20;;;1.10;;
29412;SDS011;16389;50.126;8.450;2023-04-24T09:53:05;1.20;;;1.10;;
29412;SDS011;16389;50.126;8.450;2023-04-24T09:55:33;1.25;;;1.10;;
29412;SDS011;16389;50.126;8.450;2023-04-24T09:58:05;1.58;;;1.13;;
29412;SDS011;16389;50.126;8.450;2023-04-24T10:00:33;1.10;;;1.05;;
29412;SDS011;16389;50.126;8.450;2023-04-24T10:02:59;1.67;;;1.23;;
29412;SDS011;16389;50.126;8.450;2023-04-24T10:05:33;2.00;;;1.30;;
29412;SDS011;16389;50.126;8.450;2023-04-24T10:08:01;1.33;;;1.20;;
29412;SDS011;16389;50.126;8.450;2023-04-24T10:10:31;1.38;;;1.13;;
29412;SDS011;16389;50.126;8.450;2023-04-24T10:12:59;1.40;;;1.30;;
29412;SDS011;16389;50.126;8.450;2023-04-24T10:15:25;1.40;;;1.30;;
29412;SDS011;16389;50.126;8.450;2023-04-24T10:17:51;1.33;;;1.23;;
29412;SDS011;16389;50.126;8.450;2023-04-24T10:20:24;1.45;;;1.20;;
29412;SDS011;16389;50.126;8.450;2023-04-24T10:22:52;1.70;;;1.60;;
29412;SDS011;16389;50.126;8.450;2023-04-24T10:25:29;2.22;;;1.50;;
29412;SDS011;16389;50.126;8.450;2023-04-24T10:27:57;1.48;;;1.38;;
29412;SDS011;16389;50.126;8.450;2023-04-24T10:30:25;3.53;;;1.40;;
29412;SDS011;16389;50.126;8.450;2023-04-24T10:32:52;1.83;;;1.60;;
29412;SDS011;16389;50.126;8.450;2023-04-24T10:35:19;1.70;;;1.55;;
29412;SDS011;16389;50.126;8.450;2023-04-24T10:37:51;1.77;;;1.40;;
29412;SDS011;16389;50.126;8.450;2023-04-24T10:40:30;2.30;;;1.70;;
29412;SDS011;16389;50.126;8.450;2023-04-24T10:43:01;1.48;;;1.30;;
29412;SDS011;16389;50.126;8.450;2023-04-24T10:45:31;1.50;;;1.40;;
29412;SDS011;16389;50.126;8.450;2023-04-24T10:47:57;1.90;;;1.50;;
29412;SDS011;16389;50.126;8.450;2023-04-24T10:50:26;4.13;;;1.40;;
29412;SDS011;16389;50.126;8.450;2023-04-24T10:52:55;1.73;;;1.60;;
29412;SDS011;16389;50.126;8.450;2023-04-24T10:55:50;4.85;;;1.42;;
29412;SDS011;16389;50.126;8.450;2023-04-24T10:58:23;1.33;;;1.23;;
29412;SDS011;16389;50.126;8.450;2023-04-24T11:01:00;1.60;;;1.30;;
29412;SDS011;16389;50.126;8.450;2023-04-24T11:03:29;2.38;;;1.10;;
29412;SDS011;16389;50.126;8.450;2023-04-24T11:06:00;1.00;;;0.90;;
29412;SDS011;16389;50.126;8.450;2023-04-24T11:08:28;0.80;;;0.80;;
29412;SDS011;16389;50.126;8.450;2023-04-24T11:11:09;0.90;;;0.80;;
29412;SDS011;16389;50.126;8.450;2023-04-24T11:16:25;1.95;;;0.60;;
29412;SDS011;16389;50.126;8.450;2023-04-24T11:21:26;1.15;;;0.60;;
29412;SDS011;16389;50.126;8.450;2023-04-24T11:23:57;2.05;;;0.70;;
29412;SDS011;16389;50.126;8.450;2023-04-24T11:26:22;0.60;;;0.60;;
29412;SDS011;16389;50.126;8.450;2023-04-24T11:29:05;0.82;;;0.73;;
29412;SDS011;16389;50.126;8.450;2023-04-24T11:31:39;1.08;;;0.88;;
29412;SDS011;16389;50.126;8.450;2023-04-24T11:34:10;0.60;;;0.60;;
29412;SDS011;16389;50.126;8.450;2023-04-24T11:36:38;1.23;;;0.75;;
29412;SDS011;16389;50.126;8.450;2023-04-24T11:39:04;0.60;;;0.60;;
29412;SDS011;16389;50.126;8.450;2023-04-24T11:41:30;1.05;;;0.70;;
29412;SDS011;16389;50.126;8.450;2023-04-24T11:43:57;0.95;;;0.77;;
29412;SDS011;16389;50.126;8.450;2023-04-24T11:46:23;0.80;;;0.63;;
29412;SDS011;16389;50.126;8.450;2023-04-24T11:48:52;0.80;;;0.80;;
29412;SDS011;16389;50.126;8.450;2023-04-24T11:51:18;1.52;;;0.88;;
29412;SDS011;16389;50.126;8.450;2023-04-24T11:53:44;0.98;;;0.88;;
29412;SDS011;16389;50.126;8.450;2023-04-24T11:56:10;1.15;;;1.02;;
29412;SDS011;16389;50.126;8.450;2023-04-24T11:58:37;1.58;;;1.00;;
29412;SDS011;16389;50.126;8.450;2023-04-24T12:01:03;1.70;;;1.20;;
29412;SDS011;16389;50.126;8.450;2023-04-24T12:03:30;1.92;;;1.30;;
29412;SDS011;16389;50.126;8.450;2023-04-24T12:06:08;1.48;;;1.00;;
29412;SDS011;16389;50.126;8.450;2023-04-24T12:11:02;1.05;;;0.90;;
29412;SDS011;16389;50.126;8.450;2023-04-24T12:13:28;0.88;;;0.80;;
29412;SDS011;16389;50.126;8.450;2023-04-24T12:15:54;0.90;;;0.90;;
29412;SDS011;16389;50.126;8.450;2023-04-24T12:18:22;0.95;;;0.88;;
29412;SDS011;16389;50.126;8.450;2023-04-24T12:20:48;2.13;;;1.20;;
29412;SDS011;16389;50.126;8.450;2023-04-24T12:23:14;1.90;;;1.00;;
29412;SDS011;16389;50.126;8.450;2023-04-24T12:25:40;1.88;;;1.10;;
29412;SDS011;16389;50.126;8.450;2023-04-24T12:28:16;1.98;;;1.58;;
29412;SDS011;16389;50.126;8.450;2023-04-24T12:30:46;2.47;;;1.65;;
29412;SDS011;16389;50.126;8.450;2023-04-24T12:33:17;2.45;;;1.45;;
29412;SDS011;16389;50.126;8.450;2023-04-24T12:35:47;1.67;;;1.45;;
29412;SDS011;16389;50.126;8.450;2023-04-24T12:38:16;1.92;;;1.48;;
29412;SDS011;16389;50.126;8.450;2023-04-24T12:40:46;2.08;;;1.27;;
29412;SDS011;16389;50.126;8.450;2023-04-24T12:43:18;1.38;;;1.27;;
29412;SDS011;16389;50.126;8.450;2023-04-24T12:45:45;2.13;;;1.20;;
29412;SDS011;16389;50.126;8.450;2023-04-24T12:48:12;1.80;;;1.30;;
29412;SDS011;16389;50.126;8.450;2023-04-24T12:50:39;1.45;;;1.35;;
29412;SDS011;16389;50.126;8.450;2023-04-24T12:53:05;3.65;;;1.30;;
29412;SDS011;16389;50.126;8.450;2023-04-24T12:55:34;1.30;;;1.20;;
29412;SDS011;16389;50.126;8.450;2023-04-24T12:57:59;1.83;;;1.17;;
29412;SDS011;16389;50.126;8.450;2023-04-24T13:00:26;1.50;;;1.40;;
29412;SDS011;16389;50.126;8.450;2023-04-24T13:02:52;1.55;;;1.23;;
29412;SDS011;16389;50.126;8.450;2023-04-24T13:05:18;1.65;;;1.55;;
29412;SDS011;16389;50.126;8.450;2023-04-24T13:07:43;2.55;;;1.55;;
29412;SDS011;16389;50.126;8.450;2023-04-24T13:10:09;3.80;;;2.03;;
29412;SDS011;16389;50.126;8.450;2023-04-24T13:12:35;3.78;;;1.67;;
29412;SDS011;16389;50.126;8.450;2023-04-24T13:15:01;1.30;;;1.20;;
29412;SDS011;16389;50.126;8.450;2023-04-24T13:17:28;1.65;;;1.30;;
29412;SDS011;16389;50.126;8.450;2023-04-24T13:19:54;2.25;;;1.40;;
29412;SDS011;16389;50.126;8.450;2023-04-24T13:22:20;1.30;;;1.20;;
29412;SDS011;16389;50.126;8.450;2023-04-24T13:24:46;1.77;;;1.38;;
29412;SDS011;16389;50.126;8.450;2023-04-24T13:27:14;1.67;;;1.40;;
29412;SDS011;16389;50.126;8.450;2023-04-24T13:29:40;1.98;;;1.73;;
29412;SDS011;16389;50.126;8.450;2023-04-24T13:32:06;2.42;;;1.55;;
29412;SDS011;16389;50.126;8.450;2023-04-24T13:34:32;2.33;;;1.55;;
29412;SDS011;16389;50.126;8.450;2023-04-24T13:36:59;3.40;;;1.27;;
29412;SDS011;16389;50.126;8.450;2023-04-24T13:39:26;1.67;;;1.40;;
29412;SDS011;16389;50.126;8.450;2023-04-24T13:41:52;1.83;;;1.40;;
29412;SDS011;16389;50.126;8.450;2023-04-24T13:44:21;3.63;;;2.00;;
29412;SDS011;16389;50.126;8.450;2023-04-24T13:46:48;1.63;;;1.45;;
29412;SDS011;16389;50.126;8.450;2023-04-24T13:49:15;1.83;;;1.52;;
29412;SDS011;16389;50.126;8.450;2023-04-24T13:51:42;3.35;;;1.40;;
29412;SDS011;16389;50.126;8.450;2023-04-24T13:54:07;2.05;;;1.20;;
29412;SDS011;16389;50.126;8.450;2023-04-24T13:56:33;1.88;;;1.20;;
29412;SDS011;16389;50.126;8.450;2023-04-24T13:58:59;1.58;;;1.48;;
29412;SDS011;16389;50.126;8.450;2023-04-24T14:01:25;1.40;;;1.30;;
29412;SDS011;16389;50.126;8.450;2023-04-24T14:03:55;2.38;;;1.35;;
29412;SDS011;16389;50.126;8.450;2023-04-24T14:06:21;1.33;;;1.23;;
29412;SDS011;16389;50.126;8.450;2023-04-24T14:08:48;1.60;;;1.50;;
29412;SDS011;16389;50.126;8.450;2023-04-24T14:11:15;1.98;;;1.50;;
29412;SDS011;16389;50.126;8.450;2023-04-24T14:13:41;1.30;;;1.20;;
29412;SDS011;16389;50.126;8.450;2023-04-24T14:16:08;1.55;;;1.42;;
29412;SDS011;16389;50.126;8.450;2023-04-24T14:18:34;2.45;;;1.27;;
29412;SDS011;16389;50.126;8.450;2023-04-24T14:21:01;2.45;;;1.55;;
29412;SDS011;16389;50.126;8.450;2023-04-24T14:23:27;2.95;;;1.30;;
29412;SDS011;16389;50.126;8.450;2023-04-24T14:25:53;1.60;;;1.42;;
29412;SDS011;16389;50.126;8.450;2023-04-24T14:28:19;2.08;;;1.30;;
29412;SDS011;16389;50.126;8.450;2023-04-24T14:30:45;3.90;;;1.77;;
29412;SDS011;16389;50.126;8.450;2023-04-24T14:33:14;1.77;;;1.67;;
29412;SDS011;16389;50.126;8.450;2023-04-24T14:35:40;2.40;;;1.60;;
29412;SDS011;16389;50.126;8.450;2023-04-24T14:38:09;3.45;;;1.70;;
29412;SDS011;16389;50.126;8.450;2023-04-24T14:40:35;1.83;;;1.45;;
29412;SDS011;16389;50.126;8.450;2023-04-24T14:43:03;1.50;;;1.25;;
29412;SDS011;16389;50.126;8.450;2023-04-24T14:45:29;2.08;;;1.48;;
29412;SDS011;16389;50.126;8.450;2023-04-24T14:47:55;3.08;;;1.80;;
29412;SDS011;16389;50.126;8.450;2023-04-24T14:50:21;1.65;;;1.33;;
29412;SDS011;16389;50.126;8.450;2023-04-24T14:52:47;2.28;;;1.58;;